sensor_id;sensor_type;location;lat;lon;timestamp;P1;durP1;ratioP1;P2;durP2;ratioP2
41943;SDS011;27636;52.610;13.244;2023-05-27T00:04:26;8.98;;;2.58;;
41943;SDS011;27636;52.610;13.244;2023-05-27T00:09:31;16.27;;;3.60;;
41943;SDS011;27636;52.610;13.244;2023-05-27T00:14:35;9.40;;;3.47;;
41943;SDS011;27636;52.610;13.244;2023-05-27T00:19:40;7.80;;;2.73;;
41943;SDS011;27636;52.610;13.244;2023-05-27T00:24:45;11.55;;;2.67;;
41943;SDS011;27636;52.610;13.244;2023-05-27T00:29:49;6.43;;;2.15;;
41943;SDS011;27636;52.610;13.244;2023-05-27T00:34:52;12.30;;;3.50;;
41943;SDS011;27636;52.610;13.244;2023-05-27T00:39:57;10.38;;;3.10;;
41943;SDS011;27636;52.610;13.244;2023-05-27T00:45:00;11.35;;;3.65;;
41943;SDS011;27636;52.610;13.244;2023-05-27T00:50:06;7.13;;;2.40;;
41943;SDS011;27636;52.610;13.244;2023-05-27T00:55:13;12.20;;;3.17;;
41943;SDS011;27636;52.610;13.244;2023-05-27T01:00:16;15.38;;;3.10;;
41943;SDS011;27636;52.610;13.244;2023-05-27T01:05:20;7.20;;;2.70;;
41943;SDS011;27636;52.610;13.244;2023-05-27T01:10:28;5.97;;;3.25;;
41943;SDS011;27636;52.610;13.244;2023-05-27T01:15:38;10.23;;;2.63;;
41943;SDS011;27636;52.610;13.244;2023-05-27T01:25:51;13.73;;;3.42;;
41943;SDS011;27636;52.610;13.244;2023-05-27T01:30:59;15.00;;;3.22;;
41943;SDS011;27636;52.610;13.244;2023-05-27T01:36:07;6.68;;;2.45;;
41943;SDS011;27636;52.610;13.244;2023-05-27T01:41:16;16.65;;;3.50;;
41943;SDS011;27636;52.610;13.244;2023-05-27T01:46:20;13.88;;;3.17;;
41943;SDS011;27636;52.610;13.244;2023-05-27T01:51:24;11.77;;;2.38;;
41943;SDS011;27636;52.610;13.244;2023-05-27T01:56:30;11.48;;;3.10;;
41943;SDS011;27636;52.610;13.244;2023-05-27T02:01:34;10.13;;;3.10;;
41943;SDS011;27636;52.610;13.244;2023-05-27T02:06:39;12.43;;;2.80;;
41943;SDS011;27636;52.610;13.244;2023-05-27T02:11:45;10.75;;;3.03;;
41943;SDS011;27636;52.610;13.244;2023-05-27T02:16:49;17.30;;;3.22;;
41943;SDS011;27636;52.610;13.244;2023-05-27T02:21:53;8.45;;;2.90;;
41943;SDS011;27636;52.610;13.244;2023-05-27T02:26:58;13.18;;;3.85;;
41943;SDS011;27636;52.610;13.244;2023-05-27T02:32:02;6.78;;;2.30;;
41943;SDS011;27636;52.610;13.244;2023-05-27T02:37:20;13.15;;;2.60;;
41943;SDS011;27636;52.610;13.244;2023-05-27T02:42:34;16.23;;;3.78;;
41943;SDS011;27636;52.610;13.244;2023-05-27T02:47:50;11.43;;;3.50;;
41943;SDS011;27636;52.610;13.244;2023-05-27T02:52:59;11.18;;;3.97;;
41943;SDS011;27636;52.610;13.244;2023-05-27T02:58:04;16.10;;;3.58;;
41943;SDS011;27636;52.610;13.244;2023-05-27T03:03:08;9.15;;;2.80;;
41943;SDS011;27636;52.610;13.244;2023-05-27T03:08:12;8.57;;;2.47;;
41943;SDS011;27636;52.610;13.244;2023-05-27T03:13:16;10.82;;;2.47;;
41943;SDS011;27636;52.610;13.244;2023-05-27T03:18:20;21.25;;;3.58;;
41943;SDS011;27636;52.610;13.244;2023-05-27T03:23:23;6.88;;;2.70;;
41943;SDS011;27636;52.610;13.244;2023-05-27T03:28:28;10.23;;;2.80;;
41943;SDS011;27636;52.610;13.244;2023-05-27T03:33:32;7.93;;;2.80;;
41943;SDS011;27636;52.610;13.244;2023-05-27T03:38:35;5.70;;;2.70;;
41943;SDS011;27636;52.610;13.244;2023-05-27T03:43:40;8.43;;;3.30;;
41943;SDS011;27636;52.610;13.244;2023-05-27T03:48:45;7.97;;;3.35;;
41943;SDS011;27636;52.610;13.244;2023-05-27T03:53:49;7.35;;;3.05;;
41943;SDS011;27636;52.610;13.244;2023-05-27T03:58:53;8.40;;;3.15;;
41943;SDS011;27636;52.610;13.244;2023-05-27T04:03:57;6.57;;;3.22;;
41943;SDS011;27636;52.610;13.244;2023-05-27T04:09:01;10.43;;;3.92;;
41943;SDS011;27636;52.610;13.244;2023-05-27T04:14:07;9.30;;;3.07;;
41943;SDS011;27636;52.610;13.244;2023-05-27T04:19:13;15.27;;;3.63;;
41943;SDS011;27636;52.610;13.244;2023-05-27T04:24:17;10.55;;;3.65;;
41943;SDS011;27636;52.610;13.244;2023-05-27T04:29:22;7.95;;;3.10;;
41943;SDS011;27636;52.610;13.244;2023-05-27T04:34:27;16.02;;;3.85;;
41943;SDS011;27636;52.610;13.244;2023-05-27T04:39:30;10.20;;;3.67;;
41943;SDS011;27636;52.610;13.244;2023-05-27T04:44:35;16.55;;;3.67;;
41943;SDS011;27636;52.610;13.244;2023-05-27T04:49:39;13.25;;;4.05;;
41943;SDS011;27636;52.610;13.244;2023-05-27T04:54:42;12.48;;;4.35;;
41943;SDS011;27636;52.610;13.244;2023-05-27T04:59:59;14.52;;;4.05;;
41943;SDS011;27636;52.610;13.244;2023-05-27T05:05:23;10.32;;;3.15;;
41943;SDS011;27636;52.610;13.244;2023-05-27T05:10:28;14.63;;;3.58;;
41943;SDS011;27636;52.610;13.244;2023-05-27T05:15:34;14.55;;;3.33;;
41943;SDS011;27636;52.610;13.244;2023-05-27T05:20:39;11.68;;;3.00;;
41943;SDS011;27636;52.610;13.244;2023-05-27T05:25:46;8.60;;;3.38;;
41943;SDS011;27636;52.610;13.244;2023-05-27T05:30:59;10.32;;;3.22;;
41943;SDS011;27636;52.610;13.244;2023-05-27T05:36:03;12.30;;;3.30;;
41943;SDS011;27636;52.610;13.244;2023-05-27T05:41:19;7.43;;;2.15;;
41943;SDS011;27636;52.610;13.244;2023-05-27T05:46:24;8.88;;;2.33;;
41943;SDS011;27636;52.610;13.244;2023-05-27T05:56:33;10.48;;;3.25;;
41943;SDS011;27636;52.610;13.244;2023-05-27T06:01:39;7.78;;;2.67;;
41943;SDS011;27636;52.610;13.244;2023-05-27T06:06:43;9.30;;;2.13;;
41943;SDS011;27636;52.610;13.244;2023-05-27T06:12:12;5.18;;;1.92;;
41943;SDS011;27636;52.610;13.244;2023-05-27T06:17:21;8.15;;;2.50;;
41943;SDS011;27636;52.610;13.244;2023-05-27T06:22:25;6.22;;;1.67;;
41943;SDS011;27636;52.610;13.244;2023-05-27T06:27:47;3.42;;;1.08;;
41943;SDS011;27636;52.610;13.244;2023-05-27T06:32:52;3.45;;;1.20;;
41943;SDS011;27636;52.610;13.244;2023-05-27T06:37:58;3.38;;;1.00;;
41943;SDS011;27636;52.610;13.244;2023-05-27T06:43:02;5.63;;;0.90;;
41943;SDS011;27636;52.610;13.244;2023-05-27T06:48:25;2.08;;;0.80;;
41943;SDS011;27636;52.610;13.244;2023-05-27T06:58:38;2.72;;;0.80;;
41943;SDS011;27636;52.610;13.244;2023-05-27T07:03:48;10.35;;;2.90;;
41943;SDS011;27636;52.610;13.244;2023-05-27T07:08:57;3.30;;;0.90;;
41943;SDS011;27636;52.610;13.244;2023-05-27T07:14:07;2.80;;;0.73;;
41943;SDS011;27636;52.610;13.244;2023-05-27T07:19:15;3.13;;;1.00;;
41943;SDS011;27636;52.610;13.244;2023-05-27T07:24:26;2.97;;;1.10;;
41943;SDS011;27636;52.610;13.244;2023-05-27T07:29:31;1.40;;;0.80;;
41943;SDS011;27636;52.610;13.244;2023-05-27T07:34:48;3.92;;;1.00;;
41943;SDS011;27636;52.610;13.244;2023-05-27T07:39:53;1.63;;;0.75;;
41943;SDS011;27636;52.610;13.244;2023-05-27T07:44:57;3.05;;;0.88;;
41943;SDS011;27636;52.610;13.244;2023-05-27T07:50:02;2.55;;;0.93;;
41943;SDS011;27636;52.610;13.244;2023-05-27T07:55:06;2.20;;;0.65;;
41943;SDS011;27636;52.610;13.244;2023-05-27T08:00:11;4.43;;;0.77;;
41943;SDS011;27636;52.610;13.244;2023-05-27T08:05:28;2.72;;;0.90;;
41943;SDS011;27636;52.610;13.244;2023-05-27T08:10:54;3.83;;;0.85;;
41943;SDS011;27636;52.610;13.244;2023-05-27T08:16:21;1.77;;;0.73;;
41943;SDS011;27636;52.610;13.244;2023-05-27T08:21:40;0.93;;;0.40;;
41943;SDS011;27636;52.610;13.244;2023-05-27T08:27:12;1.77;;;0.68;;
41943;SDS011;27636;52.610;13.244;2023-05-27T08:32:33;2.42;;;0.73;;
41943;SDS011;27636;52.610;13.244;2023-05-27T08:37:39;4.03;;;0.98;;
41943;SDS011;27636;52.610;13.244;2023-05-27T08:42:43;0.95;;;0.50;;
41943;SDS011;27636;52.610;13.244;2023-05-27T08:47:49;2.78;;;0.70;;
41943;SDS011;27636;52.610;13.244;2023-05-27T08:53:03;2.58;;;0.88;;
41943;SDS011;27636;52.610;13.244;2023-05-27T08:58:07;1.70;;;0.80;;
41943;SDS011;27636;52.610;13.244;2023-05-27T09:03:17;1.42;;;0.55;;
41943;SDS011;27636;52.610;13.244;2023-05-27T09:08:23;1.77;;;0.68;;
41943;SDS011;27636;52.610;13.244;2023-05-27T09:13:42;4.70;;;1.00;;
41943;SDS011;27636;52.610;13.244;2023-05-27T09:18:45;3.45;;;0.75;;
41943;SDS011;27636;52.610;13.244;2023-05-27T09:23:50;3.35;;;0.90;;
41943;SDS011;27636;52.610;13.244;2023-05-27T09:28:59;1.88;;;0.77;;
41943;SDS011;27636;52.610;13.244;2023-05-27T09:34:09;2.65;;;1.23;;
41943;SDS011;27636;52.610;13.244;2023-05-27T09:39:16;3.10;;;0.93;;
41943;SDS011;27636;52.610;13.244;2023-05-27T09:44:22;3.47;;;0.45;;
41943;SDS011;27636;52.610;13.244;2023-05-27T09:49:29;6.25;;;1.05;;
41943;SDS011;27636;52.610;13.244;2023-05-27T09:54:36;2.15;;;0.77;;
41943;SDS011;27636;52.610;13.244;2023-05-27T09:59:40;2.30;;;0.82;;
41943;SDS011;27636;52.610;13.244;2023-05-27T10:04:44;0.83;;;0.60;;
41943;SDS011;27636;52.610;13.244;2023-05-27T10:09:52;2.97;;;0.70;;
41943;SDS011;27636;52.610;13.244;2023-05-27T10:14:57;3.35;;;0.80;;
41943;SDS011;27636;52.610;13.244;2023-05-27T10:20:00;2.22;;;0.75;;
41943;SDS011;27636;52.610;13.244;2023-05-27T10:25:12;2.70;;;0.73;;
41943;SDS011;27636;52.610;13.244;2023-05-27T10:30:16;1.70;;;0.80;;
41943;SDS011;27636;52.610;13.244;2023-05-27T10:35:19;3.47;;;1.08;;
41943;SDS011;27636;52.610;13.244;2023-05-27T10:40:30;2.40;;;0.95;;
41943;SDS011;27636;52.610;13.244;2023-05-27T10:45:34;2.20;;;0.90;;
41943;SDS011;27636;52.610;13.244;2023-05-27T10:50:37;3.97;;;1.00;;
41943;SDS011;27636;52.610;13.244;2023-05-27T10:55:42;2.53;;;0.90;;
41943;SDS011;27636;52.610;13.244;2023-05-27T11:00:48;4.95;;;1.30;;
41943;SDS011;27636;52.610;13.244;2023-05-27T11:05:57;1.77;;;0.98;;
41943;SDS011;27636;52.610;13.244;2023-05-27T11:11:06;3.90;;;1.52;;
41943;SDS011;27636;52.610;13.244;2023-05-27T11:16:10;2.25;;;1.00;;
41943;SDS011;27636;52.610;13.244;2023-05-27T11:21:15;2.33;;;1.00;;
41943;SDS011;27636;52.610;13.244;2023-05-27T11:26:21;3.42;;;1.40;;
41943;SDS011;27636;52.610;13.244;2023-05-27T11:31:26;2.45;;;1.00;;
41943;SDS011;27636;52.610;13.244;2023-05-27T11:36:31;3.90;;;1.35;;
41943;SDS011;27636;52.610;13.244;2023-05-27T11:41:46;2.80;;;1.15;;
41943;SDS011;27636;52.610;13.244;2023-05-27T11:46:52;3.70;;;1.27;;
41943;SDS011;27636;52.610;13.244;2023-05-27T11:52:03;4.30;;;1.40;;
41943;SDS011;27636;52.610;13.244;2023-05-27T11:57:09;2.47;;;1.05;;
41943;SDS011;27636;52.610;13.244;2023-05-27T12:02:13;3.65;;;1.33;;
41943;SDS011;27636;52.610;13.244;2023-05-27T12:07:17;3.83;;;1.00;;
41943;SDS011;27636;52.610;13.244;2023-05-27T12:12:24;3.35;;;1.27;;
41943;SDS011;27636;52.610;13.244;2023-05-27T12:17:28;3.17;;;1.38;;
41943;SDS011;27636;52.610;13.244;2023-05-27T12:22:32;3.60;;;1.10;;
41943;SDS011;27636;52.610;13.244;2023-05-27T12:27:37;3.70;;;1.30;;
41943;SDS011;27636;52.610;13.244;2023-05-27T12:32:40;7.68;;;3.08;;
41943;SDS011;27636;52.610;13.244;2023-05-27T12:42:50;3.67;;;1.33;;
41943;SDS011;27636;52.610;13.244;2023-05-27T12:47:54;6.07;;;1.33;;
41943;SDS011;27636;52.610;13.244;2023-05-27T12:58:03;2.77;;;1.27;;
41943;SDS011;27636;52.610;13.244;2023-05-27T13:03:07;3.17;;;1.15;;
41943;SDS011;27636;52.610;13.244;2023-05-27T13:08:14;4.57;;;1.30;;
41943;SDS011;27636;52.610;13.244;2023-05-27T13:13:19;3.28;;;1.23;;
41943;SDS011;27636;52.610;13.244;2023-05-27T13:18:23;4.40;;;1.23;;
41943;SDS011;27636;52.610;13.244;2023-05-27T13:23:26;3.97;;;1.20;;
41943;SDS011;27636;52.610;13.244;2023-05-27T13:28:33;4.93;;;1.10;;
41943;SDS011;27636;52.610;13.244;2023-05-27T13:33:37;3.47;;;1.33;;
41943;SDS011;27636;52.610;13.244;2023-05-27T13:38:41;4.95;;;1.10;;
41943;SDS011;27636;52.610;13.244;2023-05-27T13:43:46;5.88;;;1.25;;
41943;SDS011;27636;52.610;13.244;2023-05-27T13:48:49;3.33;;;1.10;;
41943;SDS011;27636;52.610;13.244;2023-05-27T13:53:53;6.60;;;1.23;;
41943;SDS011;27636;52.610;13.244;2023-05-27T13:58:58;3.63;;;1.10;;
41943;SDS011;27636;52.610;13.244;2023-05-27T14:04:02;2.95;;;0.90;;
41943;SDS011;27636;52.610;13.244;2023-05-27T14:09:05;4.00;;;1.20;;
41943;SDS011;27636;52.610;13.244;2023-05-27T14:14:10;2.67;;;0.90;;
41943;SDS011;27636;52.610;13.244;2023-05-27T14:19:13;4.70;;;1.63;;
41943;SDS011;27636;52.610;13.244;2023-05-27T14:24:17;4.40;;;1.20;;
41943;SDS011;27636;52.610;13.244;2023-05-27T14:29:22;3.88;;;1.17;;
41943;SDS011;27636;52.610;13.244;2023-05-27T14:34:25;1.85;;;1.00;;
41943;SDS011;27636;52.610;13.244;2023-05-27T14:39:28;2.45;;;1.17;;
41943;SDS011;27636;52.610;13.244;2023-05-27T14:44:34;4.17;;;1.00;;
41943;SDS011;27636;52.610;13.244;2023-05-27T14:49:41;7.47;;;1.35;;
41943;SDS011;27636;52.610;13.244;2023-05-27T14:54:44;4.85;;;1.30;;
41943;SDS011;27636;52.610;13.244;2023-05-27T14:59:49;4.70;;;1.10;;
41943;SDS011;27636;52.610;13.244;2023-05-27T15:04:53;2.70;;;0.98;;
41943;SDS011;27636;52.610;13.244;2023-05-27T15:09:57;4.27;;;1.50;;
41943;SDS011;27636;52.610;13.244;2023-05-27T15:15:03;3.30;;;1.20;;
41943;SDS011;27636;52.610;13.244;2023-05-27T15:20:08;2.67;;;1.02;;
41943;SDS011;27636;52.610;13.244;2023-05-27T15:25:13;3.65;;;1.10;;
41943;SDS011;27636;52.610;13.244;2023-05-27T15:30:18;2.67;;;1.30;;
41943;SDS011;27636;52.610;13.244;2023-05-27T15:35:22;3.80;;;1.33;;
41943;SDS011;27636;52.610;13.244;2023-05-27T15:40:25;2.72;;;1.05;;
41943;SDS011;27636;52.610;13.244;2023-05-27T15:45:30;6.30;;;1.20;;
41943;SDS011;27636;52.610;13.244;2023-05-27T15:50:35;6.63;;;2.45;;
41943;SDS011;27636;52.610;13.244;2023-05-27T15:55:40;5.38;;;2.20;;
41943;SDS011;27636;52.610;13.244;2023-05-27T16:05:50;3.80;;;1.02;;
41943;SDS011;27636;52.610;13.244;2023-05-27T16:10:54;3.30;;;1.03;;
41943;SDS011;27636;52.610;13.244;2023-05-27T16:15:59;1.95;;;0.82;;
41943;SDS011;27636;52.610;13.244;2023-05-27T16:21:02;6.20;;;1.10;;
41943;SDS011;27636;52.610;13.244;2023-05-27T16:26:06;4.68;;;1.20;;
41943;SDS011;27636;52.610;13.244;2023-05-27T16:31:10;5.22;;;0.90;;
41943;SDS011;27636;52.610;13.244;2023-05-27T16:36:14;1.50;;;0.70;;
41943;SDS011;27636;52.610;13.244;2023-05-27T16:41:18;2.63;;;0.90;;
41943;SDS011;27636;52.610;13.244;2023-05-27T16:46:23;5.13;;;1.08;;
41943;SDS011;27636;52.610;13.244;2023-05-27T16:51:26;3.53;;;1.08;;
41943;SDS011;27636;52.610;13.244;2023-05-27T16:56:30;3.95;;;1.00;;
41943;SDS011;27636;52.610;13.244;2023-05-27T17:01:34;1.95;;;0.82;;
41943;SDS011;27636;52.610;13.244;2023-05-27T17:06:38;5.28;;;1.58;;
41943;SDS011;27636;52.610;13.244;2023-05-27T17:11:42;3.17;;;0.95;;
41943;SDS011;27636;52.610;13.244;2023-05-27T17:16:47;5.45;;;1.08;;
41943;SDS011;27636;52.610;13.244;2023-05-27T17:21:50;2.22;;;0.93;;
41943;SDS011;27636;52.610;13.244;2023-05-27T17:26:54;3.70;;;0.93;;
41943;SDS011;27636;52.610;13.244;2023-05-27T17:31:59;6.18;;;1.02;;
41943;SDS011;27636;52.610;13.244;2023-05-27T17:37:05;4.57;;;1.38;;
41943;SDS011;27636;52.610;13.244;2023-05-27T17:42:09;3.25;;;0.80;;
41943;SDS011;27636;52.610;13.244;2023-05-27T17:47:14;6.20;;;1.20;;
41943;SDS011;27636;52.610;13.244;2023-05-27T17:52:19;3.08;;;1.00;;
41943;SDS011;27636;52.610;13.244;2023-05-27T17:57:24;1.90;;;0.80;;
41943;SDS011;27636;52.610;13.244;2023-05-27T18:02:29;1.67;;;0.93;;
41943;SDS011;27636;52.610;13.244;2023-05-27T18:07:33;3.83;;;0.95;;
41943;SDS011;27636;52.610;13.244;2023-05-27T18:12:37;2.72;;;1.20;;
41943;SDS011;27636;52.610;13.244;2023-05-27T18:17:42;3.90;;;1.40;;
41943;SDS011;27636;52.610;13.244;2023-05-27T18:27:51;5.25;;;1.02;;
41943;SDS011;27636;52.610;13.244;2023-05-27T18:32:56;5.57;;;1.65;;
41943;SDS011;27636;52.610;13.244;2023-05-27T18:38:01;3.75;;;1.42;;
41943;SDS011;27636;52.610;13.244;2023-05-27T18:43:05;3.90;;;1.30;;
41943;SDS011;27636;52.610;13.244;2023-05-27T18:48:10;4.55;;;1.30;;
41943;SDS011;27636;52.610;13.244;2023-05-27T18:53:13;9.02;;;1.55;;
41943;SDS011;27636;52.610;13.244;2023-05-27T18:58:17;3.25;;;1.42;;
41943;SDS011;27636;52.610;13.244;2023-05-27T19:03:23;3.65;;;1.08;;
41943;SDS011;27636;52.610;13.244;2023-05-27T19:08:26;4.03;;;1.27;;
41943;SDS011;27636;52.610;13.244;2023-05-27T19:13:30;5.10;;;1.35;;
41943;SDS011;27636;52.610;13.244;2023-05-27T19:18:35;5.40;;;1.50;;
41943;SDS011;27636;52.610;13.244;2023-05-27T19:23:39;6.97;;;1.45;;
41943;SDS011;27636;52.610;13.244;2023-05-27T19:28:43;6.07;;;1.50;;
41943;SDS011;27636;52.610;13.244;2023-05-27T19:33:49;3.90;;;1.38;;
41943;SDS011;27636;52.610;13.244;2023-05-27T19:38:53;3.13;;;1.50;;
41943;SDS011;27636;52.610;13.244;2023-05-27T19:43:56;4.97;;;1.63;;
41943;SDS011;27636;52.610;13.244;2023-05-27T19:49:02;4.90;;;1.52;;
41943;SDS011;27636;52.610;13.244;2023-05-27T19:54:05;5.57;;;1.98;;
41943;SDS011;27636;52.610;13.244;2023-05-27T19:59:09;5.07;;;1.90;;
41943;SDS011;27636;52.610;13.244;2023-05-27T20:04:16;5.95;;;1.42;;
41943;SDS011;27636;52.610;13.244;2023-05-27T20:09:20;7.35;;;1.83;;
41943;SDS011;27636;52.610;13.244;2023-05-27T20:14:24;4.47;;;1.40;;
41943;SDS011;27636;52.610;13.244;2023-05-27T20:19:28;6.63;;;2.20;;
41943;SDS011;27636;52.610;13.244;2023-05-27T20:24:32;5.50;;;1.65;;
41943;SDS011;27636;52.610;13.244;2023-05-27T20:29:36;4.13;;;1.70;;
41943;SDS011;27636;52.610;13.244;2023-05-27T20:34:41;6.50;;;1.88;;
41943;SDS011;27636;52.610;13.244;2023-05-27T20:39:44;7.03;;;1.98;;
41943;SDS011;27636;52.610;13.244;2023-05-27T20:44:48;3.38;;;1.45;;
41943;SDS011;27636;52.610;13.244;2023-05-27T20:49:54;4.63;;;1.83;;
41943;SDS011;27636;52.610;13.244;2023-05-27T20:54:58;4.40;;;1.90;;
41943;SDS011;27636;52.610;13.244;2023-05-27T21:00:02;7.78;;;2.40;;
41943;SDS011;27636;52.610;13.244;2023-05-27T21:05:08;6.63;;;1.92;;
41943;SDS011;27636;52.610;13.244;2023-05-27T21:10:15;6.45;;;2.42;;
41943;SDS011;27636;52.610;13.244;2023-05-27T21:15:19;7.10;;;2.30;;
41943;SDS011;27636;52.610;13.244;2023-05-27T21:20:24;6.88;;;2.45;;
41943;SDS011;27636;52.610;13.244;2023-05-27T21:25:28;5.60;;;2.33;;
41943;SDS011;27636;52.610;13.244;2023-05-27T21:30:32;11.70;;;3.13;;
41943;SDS011;27636;52.610;13.244;2023-05-27T21:35:36;6.78;;;2.30;;
41943;SDS011;27636;52.610;13.244;2023-05-27T21:40:41;9.20;;;3.22;;
41943;SDS011;27636;52.610;13.244;2023-05-27T21:45:44;17.75;;;3.05;;
41943;SDS011;27636;52.610;13.244;2023-05-27T21:50:49;7.80;;;3.08;;
41943;SDS011;27636;52.610;13.244;2023-05-27T21:55:53;6.53;;;2.30;;
41943;SDS011;27636;52.610;13.244;2023-05-27T22:00:57;11.32;;;3.63;;
41943;SDS011;27636;52.610;13.244;2023-05-27T22:06:02;8.60;;;3.13;;
41943;SDS011;27636;52.610;13.244;2023-05-27T22:11:06;7.25;;;3.30;;
41943;SDS011;27636;52.610;13.244;2023-05-27T22:16:10;7.32;;;3.60;;
41943;SDS011;27636;52.610;13.244;2023-05-27T22:21:16;9.50;;;3.05;;
41943;SDS011;27636;52.610;13.244;2023-05-27T22:26:33;6.05;;;2.70;;
41943;SDS011;27636;52.610;13.244;2023-05-27T22:31:37;10.37;;;3.53;;
41943;SDS011;27636;52.610;13.244;2023-05-27T22:36:42;7.80;;;3.20;;
41943;SDS011;27636;52.610;13.244;2023-05-27T22:41:47;8.32;;;3.58;;
41943;SDS011;27636;52.610;13.244;2023-05-27T22:46:50;7.72;;;3.30;;
41943;SDS011;27636;52.610;13.244;2023-05-27T22:51:55;6.55;;;3.67;;
41943;SDS011;27636;52.610;13.244;2023-05-27T22:56:59;9.43;;;3.77;;
41943;SDS011;27636;52.610;13.244;2023-05-27T23:02:04;7.53;;;3.47;;
41943;SDS011;27636;52.610;13.244;2023-05-27T23:07:09;11.10;;;4.07;;
41943;SDS011;27636;52.610;13.244;2023-05-27T23:12:13;7.38;;;3.28;;
41943;SDS011;27636;52.610;13.244;2023-05-27T23:17:17;11.85;;;3.20;;
41943;SDS011;27636;52.610;13.244;2023-05-27T23:22:22;8.32;;;3.78;;
41943;SDS011;27636;52.610;13.244;2023-05-27T23:27:25;7.25;;;3.60;;
41943;SDS011;27636;52.610;13.244;2023-05-27T23:32:29;9.90;;;3.83;;
41943;SDS011;27636;52.610;13.244;2023-05-27T23:37:33;7.78;;;3.63;;
41943;SDS011;27636;52.610;13.244;2023-05-27T23:42:37;6.78;;;3.40;;
41943;SDS011;27636;52.610;13.244;2023-05-27T23:47:41;12.93;;;3.58;;
41943;SDS011;27636;52.610;13.244;2023-05-27T23:52:46;8.65;;;3.88;;
41943;SDS011;27636;52.610;13.244;2023-05-27T23:57:50;12.52;;;3.70;;
